Date,TemperatureHighF,TemperatureAvgF,TemperatureLowF,DewpointHighF,DewpointAvgF,DewpointLowF,HumidityHigh,HumidityAvg,HumidityLow,PressureMaxIn,PressureMinIn,WindSpeedMaxMPH,WindSpeedAvgMPH,GustSpeedMaxMPH,PrecipitationSumIn
2013-10-1,73.9,64.2,57.4,58.8,54.4,49.3,92,72,44,29.85,29.77,11,1,12,0.00
2013-10-2,76.8,64.6,57.9,61.5,55.5,49.8,87,74,47,29.91,29.76,11,2,15,0.00
2013-10-3,75.4,62.0,50.9,59.5,50.5,43.9,90,68,40,29.97,29.85,8,1,9,0.01
2013-10-4,77.7,67.3,64.0,66.6,63.5,59.5,97,88,62,29.88,29.80,13,2,16,0.25
2013-10-5,73.0,63.2,59.2,67.8,62.0,58.6,99,96,82,29.91,29.84,12,2,12,0.09
2013-10-6,80.8,68.7,59.2,68.5,63.6,58.8,99,85,60,29.86,29.63,27,4,28,0.03
2013-10-7,70.9,60.3,48.7,64.0,52.9,40.1,95,77,55,29.87,29.44,23,5,30,0.62
2013-10-8,61.0,51.1,42.8,46.6,42.2,36.9,96,74,44,30.20,29.87,12,2,12,0.00
2013-10-9,65.5,53.4,44.4,47.1,40.6,32.2,94,65,31,30.26,30.14,9,1,9,0.00
2013-10-10,64.4,54.6,45.9,46.8,39.5,27.1,83,58,26,30.14,30.00,8,2,9,0.00
2013-10-11,61.2,54.0,46.9,54.7,46.5,41.4,96,77,51,30.00,29.94,10,1,10,0.16
2013-10-12,74.1,59.9,46.6,50.9,41.0,32.0,84,54,23,30.06,29.96,12,2,12,0.00
2013-10-13,69.6,60.8,54.9,54.9,50.5,40.6,86,70,50,30.14,30.06,14,4,14,0.00
2013-10-14,59.9,54.0,52.3,53.8,51.9,49.1,98,93,68,30.15,30.10,11,1,12,0.33
2013-10-15,66.6,57.4,51.4,55.9,52.5,47.5,98,85,64,30.12,29.85,15,2,15,0.00
2013-10-16,60.1,57.8,54.7,55.6,50.0,44.4,96,76,61,29.86,29.64,23,6,24,0.17
2013-10-17,64.2,54.6,46.0,55.6,48.3,44.6,97,81,53,29.73,29.49,11,2,12,0.76
2013-10-18,56.8,50.4,46.8,50.2,42.0,36.9,97,73,57,29.78,29.54,14,3,16,0.03
2013-10-19,58.5,50.2,43.7,45.7,41.2,37.4,88,72,54,29.78,29.50,23,4,24,0.08
2013-10-20,49.3,44.2,39.9,41.0,38.3,35.6,89,80,68,29.86,29.60,13,2,14,0.00
2013-10-21,63.9,52.8,43.7,39.2,36.6,33.8,76,56,35,29.88,29.65,23,6,23,0.00
2013-10-22,53.1,46.2,39.0,45.3,35.4,27.1,91,67,44,29.69,29.58,16,3,16,0.03
2013-10-23,49.1,39.1,33.3,38.1,32.4,28.6,95,78,50,29.68,29.51,11,1,16,0.07
2013-10-24,46.6,37.0,31.5,34.0,30.6,25.3,94,79,45,29.87,29.65,20,3,21,0.01
2013-10-25,45.9,38.0,32.2,37.0,33.1,30.9,97,83,64,30.04,29.87,13,1,13,0.03
2013-10-26,45.7,40.2,36.0,32.0,27.8,24.4,80,62,44,30.01,29.67,23,6,27,0.00
2013-10-27,43.3,39.8,36.3,37.0,33.1,28.2,90,77,61,29.93,29.68,13,2,13,0.01
2013-10-28,47.5,39.8,34.7,36.5,31.4,26.2,79,72,62,30.22,29.92,13,3,14,0.00
2013-10-29,45.0,36.9,28.2,29.7,26.8,21.0,82,67,50,30.31,30.16,7,1,8,0.00
2013-10-30,59.2,46.1,36.9,39.7,35.8,28.2,90,68,46,30.16,29.97,9,1,10,0.00
2013-10-31,60.3,54.6,45.0,56.1,50.5,37.8,94,86,69,29.97,29.34,23,6,25,0.48